createdAt,value
2023-05-09T00:04:55.275Z,87.5
2023-05-09T00:10:01.408Z,87.5
2023-05-09T00:15:07.544Z,87
2023-05-09T00:20:13.576Z,87.5
2023-05-09T00:25:19.649Z,87.5
2023-05-09T00:30:25.755Z,87.5
2023-05-09T00:35:31.848Z,87.5
2023-05-09T00:40:37.940Z,87.5
2023-05-09T00:45:55.264Z,87.5
2023-05-09T00:51:01.354Z,88
2023-05-09T00:56:07.448Z,87.5
2023-05-09T01:01:13.635Z,87.5
2023-05-09T01:06:19.658Z,87.5
2023-05-09T01:11:25.809Z,88
2023-05-09T01:16:31.847Z,87.5
2023-05-09T01:21:37.933Z,88.5
2023-05-09T01:26:44.041Z,88
2023-05-09T01:31:50.243Z,88.5
2023-05-09T01:36:56.271Z,89
2023-05-09T01:42:02.321Z,89.5
2023-05-09T01:47:08.416Z,89.5
2023-05-09T01:52:14.468Z,90
2023-05-09T01:57:20.578Z,89.5
2023-05-09T02:02:26.733Z,89.5
2023-05-09T02:07:32.774Z,90
2023-05-09T02:12:38.904Z,90
2023-05-09T02:17:44.974Z,90
2023-05-09T02:23:02.274Z,89.5
2023-05-09T02:28:08.343Z,89
2023-05-09T02:33:14.466Z,89.5
2023-05-09T02:38:20.554Z,90
2023-05-09T02:43:26.633Z,90
2023-05-09T02:48:32.793Z,89.5
2023-05-09T02:53:38.841Z,89.5
2023-05-09T02:58:44.934Z,90
2023-05-09T03:03:51.051Z,90.5
2023-05-09T03:08:57.089Z,89.5
2023-05-09T03:14:03.210Z,89.5
2023-05-09T03:19:09.311Z,89.5
2023-05-09T03:24:15.402Z,89
2023-05-09T03:29:21.510Z,89.5
2023-05-09T03:34:27.598Z,89.5
2023-05-09T03:39:33.676Z,89
2023-05-09T03:44:39.792Z,89.5
2023-05-09T03:49:45.865Z,89
2023-05-09T03:54:51.979Z,89.5
2023-05-09T04:00:03.706Z,90
2023-05-09T04:05:09.812Z,89.5
2023-05-09T04:10:15.900Z,90
2023-05-09T04:15:21.982Z,90
2023-05-09T04:20:28.080Z,90.5
2023-05-09T04:25:34.190Z,90
2023-05-09T04:30:40.306Z,90
2023-05-09T04:35:46.363Z,90
2023-05-09T04:40:52.465Z,90
2023-05-09T04:45:58.555Z,90
2023-05-09T04:51:04.739Z,88.5
2023-05-09T04:56:10.736Z,87.5
2023-05-09T05:01:16.903Z,86.5
2023-05-09T05:06:22.933Z,82
2023-05-09T05:11:29.018Z,79.5
2023-05-09T05:16:35.170Z,80
2023-05-09T05:21:41.196Z,79.5
2023-05-09T05:26:47.322Z,80
2023-05-09T05:31:53.462Z,79.5
2023-05-09T05:37:05.137Z,80.5
2023-05-09T05:42:11.223Z,78.5
2023-05-09T05:47:17.302Z,76.5
2023-05-09T05:52:23.443Z,77
2023-05-09T05:57:29.515Z,76.5
2023-05-09T06:02:35.636Z,76.5
2023-05-09T06:07:41.741Z,75
2023-05-09T06:12:47.779Z,73
2023-05-09T06:17:53.907Z,72.5
2023-05-09T06:23:00.005Z,72.5
2023-05-09T06:28:06.079Z,74.5
2023-05-09T06:33:12.160Z,68.5
2023-05-09T06:38:18.307Z,60.5
2023-05-09T06:43:24.344Z,58.5
2023-05-09T06:48:30.501Z,53.5
2023-05-09T06:53:36.562Z,53.5
2023-05-09T06:58:42.659Z,55
2023-05-09T07:03:48.750Z,53.5
2023-05-09T07:08:54.849Z,54.5
2023-05-09T07:14:12.159Z,55.5
2023-05-09T07:19:18.264Z,61
2023-05-09T07:24:24.365Z,55.5
2023-05-09T07:29:30.445Z,52
2023-05-09T07:34:36.536Z,53
2023-05-09T07:39:42.632Z,63.5
2023-05-09T07:44:48.721Z,65.5
2023-05-09T07:49:54.875Z,62
2023-05-09T07:55:00.924Z,60
2023-05-09T08:00:07.046Z,55.5
2023-05-09T08:05:13.280Z,54.5
2023-05-09T08:10:19.207Z,55.5
2023-05-09T08:15:25.306Z,64
2023-05-09T08:20:31.408Z,64.5
2023-05-09T08:25:37.497Z,62.5
2023-05-09T08:30:43.581Z,63.5
2023-05-09T08:35:49.692Z,64.5
2023-05-09T08:40:55.785Z,67.5
2023-05-09T08:46:01.916Z,67.5
2023-05-09T08:51:24.801Z,62
2023-05-09T08:56:30.887Z,55
2023-05-09T09:01:37.013Z,59
2023-05-09T09:06:43.051Z,63
2023-05-09T09:11:49.151Z,65
2023-05-09T09:16:55.341Z,65
2023-05-09T09:22:01.355Z,64.5
2023-05-09T09:27:07.448Z,63.5
2023-05-09T09:32:13.684Z,63.5
2023-05-09T09:37:19.626Z,66.5
2023-05-09T09:42:25.743Z,69
2023-05-09T09:47:31.891Z,66.5
2023-05-09T09:52:37.930Z,61.5
2023-05-09T09:57:44.024Z,68
2023-05-09T10:02:50.188Z,64.5
2023-05-09T10:07:56.241Z,62.5
2023-05-09T10:13:02.345Z,65
2023-05-09T10:18:08.574Z,63.5
2023-05-09T10:23:14.513Z,67.5
2023-05-09T10:28:26.256Z,62.5
2023-05-09T10:33:32.329Z,62.5
2023-05-09T10:38:38.421Z,65.5
2023-05-09T10:43:44.514Z,62.5
2023-05-09T10:48:50.614Z,61.5
2023-05-09T10:53:56.706Z,60.5
2023-05-09T10:59:02.800Z,60.5
2023-05-09T11:04:08.901Z,60
2023-05-09T11:09:14.973Z,60
2023-05-09T11:14:21.062Z,57.5
2023-05-09T11:19:27.166Z,57
2023-05-09T11:24:33.336Z,58.5
2023-05-09T11:29:45.015Z,56.5
2023-05-09T11:34:51.078Z,55
2023-05-09T11:39:57.203Z,56.5
2023-05-09T11:45:03.313Z,56
2023-05-09T11:50:09.397Z,53
2023-05-09T11:55:15.691Z,57.5
2023-05-09T12:00:32.798Z,57.5
2023-05-09T12:05:38.908Z,55.5
2023-05-09T12:10:44.981Z,57
2023-05-09T12:15:51.168Z,57
2023-05-09T12:20:57.173Z,57
2023-05-09T12:26:03.268Z,57.5
2023-05-09T12:31:09.433Z,56
2023-05-09T12:36:15.453Z,63
2023-05-09T12:41:33.712Z,59
2023-05-09T12:46:27.698Z,64.5
2023-05-09T12:51:33.742Z,58.5
2023-05-09T12:56:39.879Z,60.5
2023-05-09T13:01:45.919Z,64.5
2023-05-09T13:06:52.041Z,60
2023-05-09T13:11:58.148Z,63.5
2023-05-09T13:17:05.298Z,66
2023-05-09T13:22:12.198Z,58.5
2023-05-09T13:27:16.396Z,67
2023-05-09T13:32:22.556Z,64
2023-05-09T13:37:34.237Z,65
2023-05-09T13:42:40.342Z,61.5
2023-05-09T13:47:46.459Z,60
2023-05-09T13:52:52.534Z,60
2023-05-09T13:57:58.635Z,58.5
2023-05-09T14:03:04.778Z,59.5
2023-05-09T14:08:10.813Z,71
2023-05-09T14:13:16.918Z,71.5
2023-05-09T14:18:23.014Z,72.5
2023-05-09T14:23:29.117Z,71
2023-05-09T14:28:35.184Z,73.5
2023-05-09T14:33:41.283Z,72
2023-05-09T14:38:47.391Z,69.5
2023-05-09T14:43:53.489Z,71
2023-05-09T14:48:59.612Z,74
2023-05-09T14:54:05.665Z,74.5
2023-05-09T14:59:11.780Z,74.5
2023-05-09T15:04:17.858Z,77.5
2023-05-09T15:09:24.962Z,75
2023-05-09T15:14:41.319Z,75
2023-05-09T15:19:47.410Z,72
2023-05-09T15:24:53.449Z,75
2023-05-09T15:29:59.563Z,83.5
2023-05-09T15:35:05.667Z,81.5
2023-05-09T15:40:11.747Z,84
2023-05-09T15:45:17.848Z,86
2023-05-09T15:50:23.916Z,84
2023-05-09T15:55:30.031Z,86.5
2023-05-09T16:00:36.237Z,87.5
2023-05-09T16:05:42.214Z,85.5
2023-05-09T16:10:48.300Z,85.5
2023-05-09T16:15:54.450Z,90.5
2023-05-09T16:21:00.492Z,89.5
2023-05-09T16:26:06.613Z,91.5
2023-05-09T16:31:12.735Z,92
2023-05-09T16:36:18.795Z,93
2023-05-09T16:41:24.890Z,91
2023-05-09T16:46:30.971Z,91.5
2023-05-09T16:51:42.729Z,93
2023-05-09T16:56:48.803Z,92
2023-05-09T17:01:54.888Z,95.5
2023-05-09T17:07:00.984Z,97
2023-05-09T17:12:07.086Z,96.5
2023-05-09T17:17:13.170Z,96.5
2023-05-09T17:22:19.274Z,96.5
2023-05-09T17:27:25.361Z,97
2023-05-09T17:32:31.543Z,97
2023-05-09T17:37:37.606Z,96
2023-05-09T17:42:43.665Z,94
2023-05-09T17:47:49.848Z,91.5
2023-05-09T17:52:56.929Z,91
2023-05-09T17:58:01.935Z,93.5
2023-05-09T18:03:08.083Z,93.5
2023-05-09T18:08:14.113Z,94.5
2023-05-09T18:13:20.250Z,95
2023-05-09T18:18:26.300Z,95.5
2023-05-09T18:23:32.426Z,96
2023-05-09T18:28:44.153Z,97
2023-05-09T18:33:50.237Z,95.5
2023-05-09T18:38:56.340Z,96.5
2023-05-09T18:44:02.424Z,96.5
2023-05-09T18:49:08.532Z,96
2023-05-09T18:54:14.598Z,96.5
2023-05-09T18:59:20.696Z,96.5
2023-05-09T19:04:26.842Z,97
2023-05-09T19:09:32.936Z,95.5
2023-05-09T19:14:39.019Z,98
2023-05-09T19:19:45.368Z,97.5
2023-05-09T19:24:51.172Z,98
2023-05-09T19:29:57.280Z,97.5
2023-05-09T19:35:03.355Z,97.5
2023-05-09T19:40:09.529Z,98
2023-05-09T19:45:15.580Z,97
2023-05-09T19:50:21.680Z,97
2023-05-09T19:55:27.761Z,98
2023-05-09T20:00:33.816Z,97
2023-05-09T20:05:45.565Z,97
2023-05-09T20:10:51.662Z,95.5
2023-05-09T20:15:57.760Z,94.5
2023-05-09T20:21:03.863Z,94.5
2023-05-09T20:26:09.988Z,94
2023-05-09T20:31:16.085Z,95
2023-05-09T20:36:22.135Z,98
2023-05-09T20:41:28.215Z,97
2023-05-09T20:46:34.324Z,98
2023-05-09T20:51:40.433Z,96
2023-05-09T20:56:46.522Z,96.5
2023-05-09T21:01:52.637Z,97
2023-05-09T21:06:58.731Z,96.5
2023-05-09T21:12:04.866Z,96.5
2023-05-09T21:17:10.952Z,96.5
2023-05-09T21:22:16.994Z,96.5
2023-05-09T21:27:23.104Z,95.5
2023-05-09T21:32:29.218Z,95
2023-05-09T21:37:35.257Z,96
2023-05-09T21:42:46.994Z,95.5
2023-05-09T21:47:53.209Z,95
2023-05-09T21:52:59.175Z,95.5
2023-05-09T21:58:05.302Z,96.5
2023-05-09T22:03:11.423Z,96
2023-05-09T22:08:17.501Z,97.5
2023-05-09T22:13:23.693Z,98
2023-05-09T22:18:29.696Z,93.5
2023-05-09T22:23:35.772Z,96.5
2023-05-09T22:28:41.877Z,96.5
2023-05-09T22:33:48.217Z,98.5
2023-05-09T22:38:54.037Z,98.5
2023-05-09T22:44:00.153Z,98.5
2023-05-09T22:49:06.242Z,99.5
2023-05-09T22:54:12.343Z,100
2023-05-09T22:59:18.438Z,99
2023-05-09T23:04:24.540Z,98
2023-05-09T23:09:30.610Z,96.5
2023-05-09T23:14:36.707Z,98
2023-05-09T23:19:48.548Z,98
2023-05-09T23:24:55.556Z,96.5
2023-05-09T23:30:00.649Z,95.5
2023-05-09T23:35:06.698Z,96
2023-05-09T23:40:12.866Z,97
2023-05-09T23:45:18.894Z,96.5
2023-05-09T23:50:24.997Z,96.5
2023-05-09T23:55:31.103Z,97
